Time;durP1;ratioP1;P1;durP2;ratioP2;P2;SDS_P1;SDS_P2;PMS_P1;PMS_P2;Temp;Humidity;BMP_temperature;BMP_pressure;BME280_temperature;BME280_humidity;BME280_pressure;Samples;Min_cycle;Max_cycle;Signal;HPM_P1;HPM_P2
2023/08/07 00:02:01;;;;;;;0.30;0.30;;;20.00;99.90;;;;;;5129257;27;20650;-66
2023/08/07 00:04:29;;;;;;;0.30;0.30;;;20.00;99.90;;;;;;5129655;27;20222;-66
2023/08/07 00:06:56;;;;;;;0.80;0.28;;;19.90;99.90;;;;;;5148579;27;20194;-66
2023/08/07 00:09:25;;;;;;;0.35;0.30;;;19.90;99.90;;;;;;5133240;27;20565;-66
2023/08/07 00:11:52;;;;;;;0.40;0.40;;;19.90;99.90;;;;;;5147791;27;20233;-66
2023/08/07 00:14:19;;;;;;;0.52;0.50;;;19.90;99.90;;;;;;5150291;27;20203;-66
2023/08/07 00:16:46;;;;;;;0.20;0.20;;;19.90;99.90;;;;;;5149298;27;20274;-66
2023/08/07 00:19:13;;;;;;;0.30;0.30;;;19.90;99.90;;;;;;5149450;27;20289;-66
2023/08/07 00:21:40;;;;;;;0.28;0.28;;;19.90;99.90;;;;;;5149076;27;20195;-66
2023/08/07 00:24:07;;;;;;;0.73;0.30;;;19.90;99.90;;;;;;5132088;27;20213;-66
2023/08/07 00:26:35;;;;;;;0.22;0.22;;;19.90;99.90;;;;;;5130192;27;20223;-66
2023/08/07 00:29:02;;;;;;;1.00;0.40;;;19.90;99.90;;;;;;5151266;27;20195;-65
2023/08/07 00:31:31;;;;;;;0.50;0.50;;;19.90;99.90;;;;;;5149397;27;20705;-66
2023/08/07 00:33:58;;;;;;;1.45;0.40;;;19.80;99.90;;;;;;5143568;27;20202;-66
2023/08/07 00:36:28;;;;;;;0.40;0.40;;;19.80;99.90;;;;;;5151678;27;20198;-66
2023/08/07 00:38:55;;;;;;;0.40;0.40;;;19.80;99.90;;;;;;5150943;27;20235;-66
2023/08/07 00:41:22;;;;;;;0.30;0.30;;;19.80;99.90;;;;;;5140385;27;20193;-66
2023/08/07 00:43:50;;;;;;;0.20;0.20;;;19.80;99.90;;;;;;5132872;27;20203;-66
2023/08/07 00:46:18;;;;;;;0.40;0.40;;;19.70;99.90;;;;;;5132207;27;20194;-66
2023/08/07 00:48:46;;;;;;;0.32;0.32;;;19.70;99.90;;;;;;5144060;27;20183;-66
2023/08/07 00:51:13;;;;;;;0.30;0.30;;;19.70;99.90;;;;;;5149819;27;20243;-66
2023/08/07 00:53:40;;;;;;;3.40;0.40;;;19.70;99.90;;;;;;5151247;27;20203;-66
2023/08/07 00:56:08;;;;;;;0.35;0.35;;;19.60;99.90;;;;;;5143742;27;20190;-66
2023/08/07 00:58:37;;;;;;;0.30;0.30;;;19.60;99.90;;;;;;5151949;27;20605;-66
2023/08/07 01:03:47;;;;;;;0.40;0.40;;;19.60;99.90;;;;;;4108019;23;20253;-66
2023/08/07 01:06:14;;;;;;;0.20;0.20;;;19.60;99.90;;;;;;5069321;28;20247;-67
2023/08/07 01:08:41;;;;;;;0.30;0.30;;;19.50;99.90;;;;;;5050097;28;20342;-66
2023/08/07 01:11:19;;;;;;;0.30;0.30;;;19.50;99.90;;;;;;5070470;28;20201;-66
2023/08/07 01:13:56;;;;;;;0.40;0.40;;;19.50;99.90;;;;;;5052803;28;20505;-67
2023/08/07 01:16:30;;;;;;;0.30;0.30;;;19.50;99.90;;;;;;5072525;28;20219;-65
2023/08/07 01:19:01;;;;;;;0.20;0.20;;;19.50;99.90;;;;;;5070531;28;20198;-66
2023/08/07 01:21:28;;;;;;;0.30;0.30;;;19.50;99.90;;;;;;5072594;28;20306;-67
2023/08/07 01:23:56;;;;;;;0.88;0.35;;;19.50;99.90;;;;;;5070700;28;20584;-66
2023/08/07 01:26:24;;;;;;;0.30;0.30;;;19.40;99.90;;;;;;5071922;28;20197;-67
2023/08/07 01:28:59;;;;;;;0.30;0.30;;;19.40;99.90;;;;;;5071901;28;20255;-67
2023/08/07 01:31:30;;;;;;;0.40;0.40;;;19.40;99.90;;;;;;5049170;28;20270;-66
2023/08/07 01:34:00;;;;;;;0.57;0.40;;;19.40;99.90;;;;;;5047410;28;20217;-66
2023/08/07 01:36:29;;;;;;;0.30;0.30;;;19.40;99.90;;;;;;5053552;28;20270;-66
2023/08/07 01:39:00;;;;;;;0.50;0.38;;;19.40;99.90;;;;;;5070709;28;20604;-66
2023/08/07 01:41:28;;;;;;;0.20;0.20;;;19.40;99.90;;;;;;5065046;28;20196;-66
2023/08/07 01:43:55;;;;;;;0.30;0.30;;;19.40;99.90;;;;;;5070670;28;20562;-66
2023/08/07 01:46:22;;;;;;;0.40;0.40;;;19.40;99.90;;;;;;5072468;28;20194;-66
2023/08/07 01:48:49;;;;;;;0.25;0.25;;;19.40;99.90;;;;;;5069758;28;20198;-66
2023/08/07 01:51:17;;;;;;;0.30;0.30;;;19.40;99.90;;;;;;5072851;28;20204;-66
2023/08/07 01:53:44;;;;;;;0.20;0.20;;;19.40;99.90;;;;;;5070134;28;20210;-66
2023/08/07 01:56:12;;;;;;;0.40;0.40;;;19.40;99.90;;;;;;5053501;28;20564;-66
2023/08/07 01:58:39;;;;;;;0.30;0.30;;;19.40;99.90;;;;;;5053130;28;20203;-66
2023/08/07 02:01:06;;;;;;;0.85;0.40;;;19.40;99.90;;;;;;5072043;28;20212;-66
2023/08/07 02:03:33;;;;;;;1.65;0.30;;;19.40;99.90;;;;;;5068700;28;20225;-66
2023/08/07 02:06:01;;;;;;;0.30;0.30;;;19.40;99.90;;;;;;5044571;28;20266;-65
2023/08/07 02:08:28;;;;;;;0.40;0.40;;;19.40;99.90;;;;;;5070878;28;20258;-66
2023/08/07 02:10:56;;;;;;;0.88;0.50;;;19.40;99.90;;;;;;5070565;28;20193;-66
2023/08/07 02:13:24;;;;;;;0.43;0.40;;;19.30;99.90;;;;;;5051451;28;20224;-65
2023/08/07 02:15:51;;;;;;;1.75;0.40;;;19.30;99.90;;;;;;5053584;28;20284;-66
2023/08/07 02:18:18;;;;;;;0.40;0.40;;;19.30;99.90;;;;;;5069610;28;20221;-66
2023/08/07 02:20:46;;;;;;;0.30;0.30;;;19.20;99.90;;;;;;5071229;28;20356;-65
2023/08/07 02:23:13;;;;;;;0.30;0.30;;;19.20;99.90;;;;;;5068038;28;20218;-65
2023/08/07 02:25:41;;;;;;;0.30;0.30;;;19.10;99.90;;;;;;5072030;28;20191;-65
2023/08/07 02:28:08;;;;;;;0.20;0.20;;;19.10;99.90;;;;;;5070249;28;20272;-65
2023/08/07 02:30:36;;;;;;;0.20;0.20;;;19.10;99.90;;;;;;5053349;28;20201;-65
2023/08/07 02:33:03;;;;;;;0.35;0.32;;;19.10;99.90;;;;;;5050527;28;20213;-66
2023/08/07 02:35:30;;;;;;;0.20;0.20;;;19.10;99.90;;;;;;5070649;28;20197;-66
2023/08/07 02:37:57;;;;;;;0.55;0.22;;;19.10;99.90;;;;;;5070009;28;20683;-66
2023/08/07 02:40:25;;;;;;;1.75;0.30;;;19.00;99.90;;;;;;5071485;28;20197;-66
2023/08/07 02:42:52;;;;;;;0.30;0.30;;;19.00;99.90;;;;;;5068593;28;20197;-66
2023/08/07 02:45:19;;;;;;;0.80;0.32;;;19.00;99.90;;;;;;5070662;28;20201;-66
2023/08/07 02:47:48;;;;;;;0.40;0.40;;;19.00;99.90;;;;;;5069460;28;20200;-66
2023/08/07 02:50:15;;;;;;;0.30;0.30;;;19.00;99.90;;;;;;5052762;28;20585;-66
2023/08/07 02:52:42;;;;;;;0.40;0.40;;;19.00;99.90;;;;;;5067902;28;20220;-66
2023/08/07 02:55:09;;;;;;;0.30;0.30;;;19.00;99.90;;;;;;5052587;28;20201;-66
2023/08/07 02:57:36;;;;;;;0.30;0.30;;;19.00;99.90;;;;;;5070012;28;20209;-66
2023/08/07 03:00:04;;;;;;;0.20;0.20;;;19.00;99.90;;;;;;5051349;28;20663;-66
2023/08/07 03:02:31;;;;;;;0.38;0.30;;;19.00;99.90;;;;;;5068640;28;20601;-66
2023/08/07 03:05:00;;;;;;;0.30;0.30;;;19.00;99.90;;;;;;5068904;28;20255;-66
2023/08/07 03:07:27;;;;;;;0.30;0.30;;;19.00;99.90;;;;;;5069843;28;20197;-66
2023/08/07 03:09:54;;;;;;;0.40;0.40;;;19.00;99.90;;;;;;5070202;28;20200;-66
2023/08/07 03:12:21;;;;;;;0.30;0.30;;;19.00;99.90;;;;;;5050172;28;20236;-66
2023/08/07 03:14:48;;;;;;;0.30;0.30;;;19.00;99.90;;;;;;5051395;28;20201;-66
2023/08/07 03:17:15;;;;;;;0.40;0.32;;;19.00;99.90;;;;;;5050717;28;20201;-66
2023/08/07 03:19:44;;;;;;;0.77;0.40;;;19.00;99.90;;;;;;5070334;28;20572;-65
2023/08/07 03:22:14;;;;;;;0.30;0.30;;;18.90;99.90;;;;;;5049532;28;20243;-66
2023/08/07 03:24:41;;;;;;;0.28;0.28;;;18.90;99.90;;;;;;5067034;28;20236;-66
2023/08/07 03:27:08;;;;;;;0.30;0.30;;;18.90;99.90;;;;;;5069813;28;20189;-66
2023/08/07 03:29:35;;;;;;;0.40;0.40;;;18.90;99.90;;;;;;5051074;28;20227;-66
2023/08/07 03:32:03;;;;;;;0.30;0.30;;;18.90;99.90;;;;;;5068992;28;20189;-66
2023/08/07 03:34:31;;;;;;;0.40;0.40;;;18.90;99.90;;;;;;5048952;28;20247;-66
2023/08/07 03:37:00;;;;;;;0.30;0.30;;;18.90;99.90;;;;;;5051752;28;20232;-65
2023/08/07 03:39:28;;;;;;;0.25;0.25;;;18.90;99.90;;;;;;5069225;28;20482;-66
2023/08/07 03:41:55;;;;;;;2.20;0.50;;;18.90;99.90;;;;;;5049957;28;20212;-66
2023/08/07 03:44:23;;;;;;;0.70;0.32;;;18.90;99.90;;;;;;5050520;28;20198;-66
2023/08/07 03:46:50;;;;;;;0.40;0.40;;;18.90;99.90;;;;;;5069822;28;20197;-66
2023/08/07 03:49:19;;;;;;;0.30;0.30;;;18.90;99.90;;;;;;5032983;28;20299;-66
2023/08/07 03:51:46;;;;;;;0.25;0.25;;;18.90;99.90;;;;;;5050540;28;20201;-66
2023/08/07 03:54:13;;;;;;;0.20;0.20;;;18.80;99.90;;;;;;5049599;28;20221;-66
2023/08/07 03:56:43;;;;;;;0.57;0.30;;;18.80;99.90;;;;;;5062010;28;20205;-66
2023/08/07 03:59:10;;;;;;;0.47;0.40;;;18.80;99.90;;;;;;5051379;28;20204;-65
2023/08/07 04:01:37;;;;;;;0.30;0.30;;;18.80;99.90;;;;;;5069577;28;20759;-66
2023/08/07 04:04:04;;;;;;;0.30;0.30;;;18.80;99.90;;;;;;5066335;28;20716;-65
2023/08/07 04:06:31;;;;;;;0.35;0.35;;;18.80;99.90;;;;;;5069976;28;20229;-65
2023/08/07 04:08:58;;;;;;;0.32;0.32;;;18.80;99.90;;;;;;5050432;28;20635;-65
2023/08/07 04:11:26;;;;;;;0.30;0.30;;;18.80;99.90;;;;;;5068835;28;20193;-66
2023/08/07 04:13:55;;;;;;;0.40;0.40;;;18.80;99.90;;;;;;5049774;28;20718;-65
2023/08/07 04:16:22;;;;;;;0.30;0.30;;;18.80;99.90;;;;;;5050094;28;20228;-66
2023/08/07 04:18:49;;;;;;;0.30;0.30;;;18.80;99.90;;;;;;5067126;28;20201;-66
2023/08/07 04:21:16;;;;;;;0.22;0.22;;;18.80;99.90;;;;;;5050894;28;20269;-66
2023/08/07 04:23:43;;;;;;;0.55;0.25;;;18.70;99.90;;;;;;5067697;28;20217;-65
2023/08/07 04:26:10;;;;;;;0.20;0.20;;;18.80;99.90;;;;;;5070087;28;20287;-65
2023/08/07 04:28:38;;;;;;;0.40;0.40;;;18.80;99.90;;;;;;5050750;28;20572;-65
2023/08/07 04:31:06;;;;;;;0.45;0.45;;;18.80;99.90;;;;;;5048565;28;20197;-65
2023/08/07 04:33:33;;;;;;;0.70;0.40;;;18.80;99.90;;;;;;5061495;28;20213;-65
2023/08/07 04:36:00;;;;;;;0.30;0.30;;;18.80;99.90;;;;;;5068547;28;20243;-65
2023/08/07 04:38:27;;;;;;;0.20;0.20;;;18.80;99.90;;;;;;5068534;28;20239;-65
2023/08/07 04:40:54;;;;;;;0.30;0.30;;;18.80;99.90;;;;;;5067731;28;20280;-66
2023/08/07 04:43:21;;;;;;;0.40;0.40;;;18.80;99.90;;;;;;5063429;28;20193;-65
2023/08/07 04:45:48;;;;;;;0.40;0.40;;;18.70;99.90;;;;;;5070064;28;20186;-66
2023/08/07 04:48:18;;;;;;;0.25;0.25;;;18.70;99.90;;;;;;5071873;28;20623;-66
2023/08/07 04:50:45;;;;;;;0.30;0.30;;;18.70;99.90;;;;;;5072229;28;20191;-66
2023/08/07 04:53:12;;;;;;;0.40;0.40;;;18.70;99.90;;;;;;5072473;28;20709;-66
2023/08/07 04:55:39;;;;;;;0.73;0.50;;;18.70;99.90;;;;;;5071399;28;20198;-66
2023/08/07 04:58:06;;;;;;;0.40;0.40;;;18.70;99.90;;;;;;5071931;28;20193;-66
2023/08/07 05:00:34;;;;;;;0.50;0.50;;;18.70;99.90;;;;;;5071566;28;20600;-66
2023/08/07 05:03:01;;;;;;;0.20;0.20;;;18.70;99.90;;;;;;5064936;28;20304;-66
2023/08/07 05:05:29;;;;;;;0.40;0.40;;;18.70;99.90;;;;;;5070360;28;20192;-66
2023/08/07 05:07:57;;;;;;;0.40;0.40;;;18.70;99.90;;;;;;5072093;28;20620;-66
2023/08/07 05:10:24;;;;;;;0.40;0.40;;;18.70;99.90;;;;;;5071211;28;20419;-66
2023/08/07 05:12:55;;;;;;;0.32;0.32;;;18.70;99.90;;;;;;5072878;28;20292;-66
2023/08/07 05:15:22;;;;;;;1.17;0.30;;;18.80;99.90;;;;;;5053771;28;20251;-66
2023/08/07 05:17:49;;;;;;;0.40;0.40;;;18.80;99.90;;;;;;5070551;28;20258;-66
2023/08/07 05:20:16;;;;;;;0.45;0.30;;;18.80;99.90;;;;;;5072019;28;20279;-65
2023/08/07 05:22:45;;;;;;;0.30;0.30;;;18.90;99.90;;;;;;5070205;28;20193;-66
2023/08/07 05:25:15;;;;;;;0.75;0.38;;;18.90;99.90;;;;;;5052930;28;20197;-66
2023/08/07 05:27:42;;;;;;;0.40;0.40;;;18.90;99.90;;;;;;5070966;28;20189;-65
2023/08/07 05:30:10;;;;;;;0.90;0.30;;;18.90;99.90;;;;;;5072888;28;20205;-65
2023/08/07 05:32:38;;;;;;;1.13;0.50;;;18.90;99.90;;;;;;5070686;28;20235;-67
2023/08/07 05:35:06;;;;;;;0.30;0.30;;;18.90;99.90;;;;;;5068940;28;20277;-66
2023/08/07 05:37:33;;;;;;;0.40;0.40;;;18.90;99.90;;;;;;5071314;28;20274;-66
2023/08/07 05:40:03;;;;;;;0.30;0.30;;;18.90;99.90;;;;;;5071814;28;20275;-66
2023/08/07 05:42:30;;;;;;;0.60;0.40;;;18.90;99.90;;;;;;5069255;28;20266;-66
2023/08/07 05:44:57;;;;;;;0.30;0.30;;;18.90;99.90;;;;;;5062397;28;20598;-66
2023/08/07 05:47:24;;;;;;;1.02;0.30;;;18.90;99.90;;;;;;5052166;28;20213;-66
2023/08/07 05:49:51;;;;;;;0.88;0.47;;;19.00;99.90;;;;;;5045039;28;20287;-66
2023/08/07 05:52:19;;;;;;;0.38;0.38;;;19.00;99.90;;;;;;5071153;28;20206;-66
2023/08/07 05:54:46;;;;;;;0.90;0.45;;;18.90;99.90;;;;;;5071747;28;20932;-66
2023/08/07 05:57:14;;;;;;;1.08;0.52;;;18.90;99.90;;;;;;5068985;28;20664;-66
2023/08/07 05:59:41;;;;;;;0.40;0.40;;;18.90;99.90;;;;;;5053666;28;20209;-65
2023/08/07 06:02:10;;;;;;;0.50;0.50;;;18.90;99.90;;;;;;5050307;28;20395;-65
2023/08/07 06:04:37;;;;;;;1.02;0.52;;;18.90;99.90;;;;;;5071368;28;20567;-66
2023/08/07 06:07:05;;;;;;;0.68;0.60;;;18.90;99.90;;;;;;5069897;28;20274;-66
2023/08/07 06:09:33;;;;;;;0.30;0.30;;;18.90;99.90;;;;;;5071310;28;20201;-66
2023/08/07 06:12:00;;;;;;;0.50;0.50;;;18.90;99.90;;;;;;5070385;28;20232;-66
2023/08/07 06:14:29;;;;;;;0.35;0.35;;;18.90;99.90;;;;;;5070996;28;20323;-66
2023/08/07 06:16:57;;;;;;;0.50;0.50;;;19.00;99.90;;;;;;5069981;28;20305;-66
2023/08/07 06:19:27;;;;;;;0.32;0.32;;;19.00;99.90;;;;;;5070937;28;20797;-66
2023/08/07 06:21:54;;;;;;;0.30;0.30;;;19.00;99.90;;;;;;5071248;28;20197;-66
2023/08/07 06:24:21;;;;;;;0.55;0.55;;;19.00;99.90;;;;;;5071217;28;20197;-66
2023/08/07 06:26:48;;;;;;;0.57;0.40;;;19.00;99.90;;;;;;5069989;28;20502;-66
2023/08/07 06:29:15;;;;;;;1.10;0.47;;;19.00;99.90;;;;;;5052723;28;20209;-66
2023/08/07 06:31:44;;;;;;;0.35;0.32;;;19.00;99.90;;;;;;5070430;28;20279;-66
2023/08/07 06:34:11;;;;;;;0.57;0.50;;;19.10;99.90;;;;;;5050129;28;20649;-66
2023/08/07 06:36:38;;;;;;;0.50;0.50;;;19.00;99.90;;;;;;5070216;28;20283;-66
2023/08/07 06:39:05;;;;;;;0.40;0.40;;;19.10;99.90;;;;;;5052175;28;20532;-66
2023/08/07 06:41:32;;;;;;;0.45;0.45;;;19.10;99.90;;;;;;5070705;28;20587;-66
2023/08/07 06:43:59;;;;;;;0.50;0.30;;;19.10;99.90;;;;;;5052536;28;20194;-65
2023/08/07 06:46:27;;;;;;;0.40;0.40;;;19.20;99.90;;;;;;5069867;28;20549;-65
2023/08/07 06:48:56;;;;;;;1.35;0.52;;;19.10;99.90;;;;;;5068935;28;20194;-67
2023/08/07 06:51:23;;;;;;;0.40;0.40;;;19.10;99.90;;;;;;5069418;28;20536;-66
2023/08/07 06:53:50;;;;;;;0.50;0.50;;;19.10;99.90;;;;;;5069807;28;20717;-66
2023/08/07 06:56:17;;;;;;;0.40;0.40;;;19.20;99.90;;;;;;5069131;28;20714;-66
2023/08/07 06:58:44;;;;;;;0.70;0.45;;;19.10;99.90;;;;;;5070276;28;20197;-66
2023/08/07 07:01:11;;;;;;;0.43;0.43;;;19.20;99.90;;;;;;5070573;28;20276;-66
2023/08/07 07:03:38;;;;;;;0.35;0.35;;;19.10;99.90;;;;;;5050998;28;20227;-66
2023/08/07 07:06:07;;;;;;;0.65;0.50;;;19.10;99.90;;;;;;5068965;28;20326;-66
2023/08/07 07:08:34;;;;;;;0.30;0.30;;;19.10;99.90;;;;;;5051673;28;20605;-66
2023/08/07 07:11:01;;;;;;;0.50;0.30;;;19.10;99.90;;;;;;5067821;28;20610;-66
2023/08/07 07:13:28;;;;;;;0.38;0.38;;;19.10;99.90;;;;;;5068532;28;20425;-66
2023/08/07 07:15:55;;;;;;;0.43;0.40;;;19.20;99.90;;;;;;5051462;28;20309;-66
2023/08/07 07:18:22;;;;;;;0.30;0.30;;;19.20;99.90;;;;;;5068242;28;20269;-66
2023/08/07 07:20:58;;;;;;;0.38;0.38;;;19.20;99.90;;;;;;5069997;28;20208;-66
2023/08/07 07:23:26;;;;;;;0.50;0.50;;;19.20;99.90;;;;;;5064048;28;20224;-66
2023/08/07 07:25:53;;;;;;;0.30;0.30;;;19.20;99.90;;;;;;5067433;28;20193;-66
2023/08/07 07:28:21;;;;;;;0.45;0.45;;;19.20;99.90;;;;;;5069588;28;20624;-66
2023/08/07 07:30:48;;;;;;;1.48;0.70;;;19.20;99.90;;;;;;5069921;28;20198;-66
2023/08/07 07:33:15;;;;;;;0.32;0.32;;;19.20;99.90;;;;;;5068119;28;20257;-66
2023/08/07 07:35:43;;;;;;;0.50;0.35;;;19.20;99.90;;;;;;5068365;28;20684;-66
2023/08/07 07:38:11;;;;;;;0.32;0.32;;;19.30;99.90;;;;;;5070682;28;20280;-66
2023/08/07 07:40:39;;;;;;;0.50;0.50;;;19.40;99.90;;;;;;5070163;28;20189;-65
2023/08/07 07:43:06;;;;;;;0.40;0.40;;;19.40;99.90;;;;;;5068630;28;20603;-65
2023/08/07 07:45:35;;;;;;;0.50;0.50;;;19.50;99.90;;;;;;5068947;28;20521;-66
2023/08/07 07:48:02;;;;;;;0.52;0.52;;;19.50;99.90;;;;;;5068378;28;20189;-66
2023/08/07 07:50:30;;;;;;;0.40;0.40;;;19.50;99.90;;;;;;5069977;28;20301;-65
2023/08/07 07:52:57;;;;;;;0.40;0.40;;;19.50;99.90;;;;;;5050984;28;20225;-66
2023/08/07 07:55:24;;;;;;;1.27;0.50;;;19.60;99.90;;;;;;5068866;28;20275;-65
2023/08/07 07:57:52;;;;;;;0.50;0.50;;;19.60;99.90;;;;;;5067037;28;20197;-66
2023/08/07 08:00:20;;;;;;;0.65;0.65;;;19.60;99.90;;;;;;5052172;28;20209;-64
2023/08/07 08:02:47;;;;;;;0.70;0.70;;;19.60;99.90;;;;;;5064006;28;20256;-64
2023/08/07 08:05:15;;;;;;;0.85;0.60;;;19.70;99.90;;;;;;5050874;28;20235;-64
2023/08/07 08:07:43;;;;;;;0.50;0.50;;;19.70;99.90;;;;;;5069052;28;20193;-66
2023/08/07 08:10:10;;;;;;;0.50;0.50;;;19.70;99.90;;;;;;5050404;28;20197;-66
2023/08/07 08:12:38;;;;;;;0.60;0.60;;;19.70;99.90;;;;;;5062256;28;20228;-66
2023/08/07 08:15:07;;;;;;;0.50;0.50;;;19.70;99.90;;;;;;5071146;28;20331;-66
2023/08/07 08:17:34;;;;;;;0.73;0.60;;;19.70;99.90;;;;;;5067715;28;20651;-65
2023/08/07 08:20:01;;;;;;;1.20;0.70;;;19.70;99.90;;;;;;5068396;28;20255;-66
2023/08/07 08:22:28;;;;;;;0.47;0.47;;;19.70;99.90;;;;;;5067280;28;20201;-65
2023/08/07 08:24:55;;;;;;;2.25;0.60;;;19.70;99.90;;;;;;5069295;28;20654;-65
2023/08/07 08:27:22;;;;;;;1.05;0.73;;;19.70;99.90;;;;;;5049159;28;20320;-65
2023/08/07 08:29:50;;;;;;;0.60;0.40;;;19.60;99.90;;;;;;5069385;28;20288;-65
2023/08/07 08:32:18;;;;;;;0.80;0.80;;;19.60;99.90;;;;;;5066794;28;20598;-65
2023/08/07 08:34:45;;;;;;;0.82;0.60;;;19.50;99.90;;;;;;5060864;28;20209;-65
2023/08/07 08:37:12;;;;;;;0.50;0.50;;;19.50;99.90;;;;;;5050333;28;20579;-65
2023/08/07 08:39:39;;;;;;;1.20;0.50;;;19.50;99.90;;;;;;5068171;28;20197;-65
2023/08/07 08:42:07;;;;;;;0.60;0.60;;;19.50;99.90;;;;;;5049093;28;20698;-65
2023/08/07 08:44:39;;;;;;;0.40;0.40;;;19.50;99.90;;;;;;5051250;28;20197;-66
2023/08/07 08:47:08;;;;;;;0.50;0.50;;;19.50;99.90;;;;;;5049430;28;20209;-66
2023/08/07 08:49:38;;;;;;;0.60;0.60;;;19.50;99.90;;;;;;5060540;28;20231;-65
2023/08/07 08:52:06;;;;;;;0.57;0.47;;;19.50;99.90;;;;;;5067098;28;20250;-66
2023/08/07 08:54:34;;;;;;;0.85;0.63;;;19.50;99.90;;;;;;5068139;28;20576;-66
2023/08/07 08:57:01;;;;;;;0.77;0.50;;;19.40;99.90;;;;;;5064521;28;20578;-65
2023/08/07 08:59:29;;;;;;;4.03;0.70;;;19.40;99.90;;;;;;5068230;28;20490;-65
2023/08/07 09:01:56;;;;;;;0.77;0.73;;;19.50;99.90;;;;;;5068798;28;20633;-65
2023/08/07 09:04:23;;;;;;;0.60;0.60;;;19.50;99.90;;;;;;5039051;28;20244;-65
2023/08/07 09:06:52;;;;;;;0.60;0.60;;;19.50;99.90;;;;;;5047794;28;20213;-66
2023/08/07 09:09:22;;;;;;;1.05;0.50;;;19.50;99.90;;;;;;5047078;28;20628;-66
2023/08/07 09:11:51;;;;;;;0.60;0.60;;;19.50;99.90;;;;;;5047851;28;20610;-66
2023/08/07 09:14:28;;;;;;;0.57;0.57;;;19.50;99.90;;;;;;5048110;28;20264;-66
2023/08/07 09:16:55;;;;;;;0.75;0.75;;;19.50;99.90;;;;;;5047394;28;20202;-66
2023/08/07 09:19:22;;;;;;;0.60;0.60;;;19.50;99.90;;;;;;5046499;28;20235;-66
2023/08/07 09:21:49;;;;;;;0.70;0.70;;;19.80;99.90;;;;;;5048667;28;20193;-66
2023/08/07 09:24:19;;;;;;;0.95;0.60;;;19.60;99.90;;;;;;5048064;28;20194;-66
2023/08/07 09:26:47;;;;;;;0.75;0.70;;;19.60;99.90;;;;;;5047914;28;20209;-66
2023/08/07 09:29:14;;;;;;;0.60;0.60;;;19.60;99.90;;;;;;5048423;28;20194;-66
2023/08/07 09:31:45;;;;;;;0.73;0.63;;;19.60;99.90;;;;;;5047906;28;20221;-66
2023/08/07 09:34:14;;;;;;;0.60;0.60;;;19.60;99.90;;;;;;5043268;28;20263;-66
2023/08/07 09:36:42;;;;;;;0.82;0.80;;;19.60;99.90;;;;;;5050872;28;20198;-66
2023/08/07 09:39:11;;;;;;;1.20;0.68;;;19.70;99.90;;;;;;5051426;28;20567;-65
2023/08/07 09:41:39;;;;;;;0.60;0.60;;;19.70;99.90;;;;;;5050828;28;20202;-65
2023/08/07 09:44:11;;;;;;;0.50;0.50;;;19.70;99.90;;;;;;5051592;28;20205;-65
2023/08/07 09:46:45;;;;;;;0.70;0.70;;;19.70;99.90;;;;;;5052326;28;20279;-66
2023/08/07 09:49:12;;;;;;;2.10;0.75;;;19.70;99.90;;;;;;5047317;28;20204;-65
2023/08/07 09:51:44;;;;;;;0.60;0.60;;;19.80;99.90;;;;;;5050933;28;20268;-65
2023/08/07 09:54:11;;;;;;;0.60;0.60;;;19.80;99.90;;;;;;5049707;28;20225;-65
2023/08/07 09:56:41;;;;;;;1.88;0.60;;;19.80;99.90;;;;;;5044952;28;20249;-65
2023/08/07 09:59:08;;;;;;;0.63;0.63;;;19.80;99.90;;;;;;5051526;28;20209;-65
2023/08/07 10:01:38;;;;;;;0.60;0.60;;;19.80;99.90;;;;;;5051604;28;20260;-66
2023/08/07 10:04:07;;;;;;;0.70;0.70;;;19.80;99.90;;;;;;5044764;28;20257;-65
2023/08/07 10:06:35;;;;;;;0.60;0.60;;;19.80;99.90;;;;;;5050113;28;20213;-66
2023/08/07 10:09:02;;;;;;;0.70;0.70;;;19.70;99.90;;;;;;5050997;28;20626;-66
2023/08/07 10:11:30;;;;;;;1.25;0.70;;;19.70;99.90;;;;;;5050336;28;20217;-65
2023/08/07 10:13:59;;;;;;;1.95;0.57;;;19.80;99.90;;;;;;5047727;28;20305;-65
2023/08/07 10:16:28;;;;;;;0.98;0.80;;;19.80;99.90;;;;;;5050177;28;20711;-65
2023/08/07 10:18:55;;;;;;;0.68;0.68;;;19.80;99.90;;;;;;5050208;28;20724;-65
2023/08/07 10:21:24;;;;;;;0.82;0.82;;;19.80;99.90;;;;;;5049646;28;20590;-64
2023/08/07 10:23:54;;;;;;;1.13;1.02;;;19.80;99.90;;;;;;5049248;28;20265;-65
2023/08/07 10:26:23;;;;;;;3.08;1.00;;;19.80;99.90;;;;;;5046785;28;20186;-65
2023/08/07 10:28:52;;;;;;;2.00;0.90;;;19.80;99.90;;;;;;5045118;28;20202;-65
2023/08/07 10:31:23;;;;;;;1.10;1.00;;;19.80;99.90;;;;;;5050954;28;20225;-65
2023/08/07 10:33:50;;;;;;;0.70;0.70;;;19.80;99.90;;;;;;5047814;28;20186;-65
2023/08/07 10:36:19;;;;;;;1.58;0.75;;;19.90;99.90;;;;;;5050940;28;20259;-66
2023/08/07 10:38:50;;;;;;;0.82;0.80;;;19.90;99.90;;;;;;5050374;28;20614;-66
2023/08/07 10:41:19;;;;;;;1.33;0.85;;;20.00;99.90;;;;;;5057818;28;20202;-66
2023/08/07 10:43:47;;;;;;;0.98;0.98;;;20.10;99.90;;;;;;5045413;28;20611;-66
2023/08/07 10:46:16;;;;;;;0.60;0.60;;;20.20;99.90;;;;;;5050660;28;20197;-65
2023/08/07 10:48:46;;;;;;;2.15;0.90;;;20.20;99.90;;;;;;5049263;28;20198;-65
2023/08/07 10:51:14;;;;;;;1.40;1.00;;;20.30;99.90;;;;;;5043053;28;20186;-65
2023/08/07 10:53:44;;;;;;;0.98;0.93;;;20.40;99.90;;;;;;5049736;28;20194;-65
2023/08/07 10:56:15;;;;;;;2.58;1.20;;;20.40;99.90;;;;;;5050376;28;20221;-66
2023/08/07 10:58:48;;;;;;;1.15;0.80;;;20.50;99.90;;;;;;5048901;28;20209;-65
2023/08/07 11:01:23;;;;;;;1.35;1.25;;;20.50;99.90;;;;;;5048461;28;20221;-65
2023/08/07 11:03:53;;;;;;;1.70;1.00;;;20.50;99.90;;;;;;5061343;28;20236;-66
2023/08/07 11:06:23;;;;;;;1.20;0.80;;;20.50;99.90;;;;;;5069835;28;20220;-66
2023/08/07 11:08:51;;;;;;;2.20;0.90;;;20.50;99.90;;;;;;5069647;28;20572;-66
2023/08/07 11:11:18;;;;;;;0.70;0.70;;;20.60;99.90;;;;;;5069312;28;20270;-66
2023/08/07 11:13:46;;;;;;;0.70;0.70;;;20.60;99.90;;;;;;5068969;28;20258;-66
2023/08/07 11:16:13;;;;;;;0.95;0.85;;;20.60;99.90;;;;;;5063436;28;20286;-66
2023/08/07 11:18:41;;;;;;;0.60;0.60;;;20.80;99.90;;;;;;5062528;28;20189;-66
2023/08/07 11:21:11;;;;;;;7.65;0.82;;;20.80;99.90;;;;;;5067754;28;20574;-65
2023/08/07 11:23:38;;;;;;;1.80;1.00;;;20.90;99.90;;;;;;5078196;28;20520;-66
2023/08/07 11:26:05;;;;;;;7.20;1.27;;;20.90;99.90;;;;;;5067883;28;20722;-65
2023/08/07 11:28:32;;;;;;;1.23;0.85;;;21.00;99.90;;;;;;5062263;28;20205;-66
2023/08/07 11:30:59;;;;;;;2.85;0.80;;;21.00;99.90;;;;;;5069871;28;20208;-66
2023/08/07 11:33:27;;;;;;;0.93;0.93;;;21.00;99.90;;;;;;5062229;28;20301;-66
2023/08/07 11:35:55;;;;;;;4.82;1.10;;;21.10;99.90;;;;;;5048633;28;20688;-66
2023/08/07 11:38:34;;;;;;;0.80;0.80;;;21.00;99.90;;;;;;5069294;28;20197;-66
2023/08/07 11:41:02;;;;;;;1.33;1.00;;;21.00;99.60;;;;;;5068082;28;20581;-65
2023/08/07 11:43:30;;;;;;;1.10;0.80;;;21.00;99.80;;;;;;5069160;28;20247;-65
2023/08/07 11:45:59;;;;;;;1.95;0.95;;;21.00;99.90;;;;;;5067487;28;20617;-66
2023/08/07 11:48:27;;;;;;;1.20;1.10;;;21.00;99.90;;;;;;5050347;28;20609;-66
2023/08/07 11:50:55;;;;;;;1.00;0.90;;;21.00;99.70;;;;;;5069541;28;20565;-65
2023/08/07 11:53:23;;;;;;;1.45;1.00;;;21.00;99.80;;;;;;5069293;28;20908;-65
2023/08/07 11:55:58;;;;;;;0.85;0.60;;;21.00;99.80;;;;;;5066868;28;20221;-65
2023/08/07 11:58:27;;;;;;;1.05;0.95;;;21.10;99.70;;;;;;5069581;28;20516;-66
2023/08/07 12:00:55;;;;;;;0.95;0.90;;;21.10;99.40;;;;;;5051469;28;20200;-65
2023/08/07 12:03:26;;;;;;;1.48;0.90;;;21.20;99.30;;;;;;5064355;28;20236;-64
2023/08/07 12:05:54;;;;;;;1.02;0.70;;;21.20;99.70;;;;;;5050378;28;20205;-65
2023/08/07 12:08:21;;;;;;;0.80;0.80;;;21.30;99.80;;;;;;5068633;28;20205;-66
2023/08/07 12:10:51;;;;;;;0.80;0.70;;;21.30;99.60;;;;;;5051309;28;20224;-66
2023/08/07 12:13:21;;;;;;;0.70;0.70;;;21.30;99.70;;;;;;5068358;28;20228;-66
2023/08/07 12:15:52;;;;;;;1.05;0.95;;;21.30;99.70;;;;;;5068091;28;20205;-65
2023/08/07 12:18:20;;;;;;;0.90;0.90;;;21.30;99.40;;;;;;5067916;28;20652;-64
2023/08/07 12:20:47;;;;;;;0.88;0.85;;;21.30;99.30;;;;;;5069036;28;20209;-67
2023/08/07 12:23:16;;;;;;;0.85;0.70;;;21.30;99.40;;;;;;5063444;28;20201;-65
2023/08/07 12:25:43;;;;;;;1.00;1.00;;;21.40;99.20;;;;;;5063427;28;20195;-66
2023/08/07 12:28:10;;;;;;;1.92;0.95;;;21.40;99.00;;;;;;5073926;28;20205;-65
2023/08/07 12:30:39;;;;;;;2.22;1.00;;;21.40;99.10;;;;;;5069120;28;20194;-66
2023/08/07 12:33:07;;;;;;;0.82;0.82;;;21.40;98.80;;;;;;5064147;28;20245;-66
2023/08/07 12:35:35;;;;;;;2.05;0.80;;;21.40;99.00;;;;;;5064706;28;20217;-66
2023/08/07 12:38:02;;;;;;;1.48;0.70;;;21.30;98.80;;;;;;5066795;28;20185;-66
2023/08/07 12:40:30;;;;;;;1.35;0.88;;;21.20;98.90;;;;;;5069023;28;20683;-66
2023/08/07 12:42:57;;;;;;;1.42;0.85;;;21.20;99.00;;;;;;5068227;28;20193;-65
2023/08/07 12:45:24;;;;;;;0.90;0.90;;;21.20;99.00;;;;;;5051758;28;20292;-66
2023/08/07 12:47:52;;;;;;;1.08;1.00;;;21.10;99.00;;;;;;5039920;28;20239;-66
2023/08/07 12:50:19;;;;;;;1.98;1.30;;;21.10;98.90;;;;;;5068385;28;20247;-66
2023/08/07 12:52:46;;;;;;;0.90;0.90;;;21.00;98.90;;;;;;5068360;28;20197;-65
2023/08/07 12:55:13;;;;;;;1.23;1.13;;;21.00;99.30;;;;;;5068268;28;20322;-65